createdAt,value
2022-12-20T00:01:58.286Z,9.3
2022-12-20T00:12:00.639Z,9.5
2022-12-20T00:22:03.035Z,9.6
2022-12-20T00:32:05.398Z,9.7
2022-12-20T00:42:07.968Z,9.9
2022-12-20T00:52:09.877Z,9.9
2022-12-20T01:02:12.528Z,10.1
2022-12-20T01:12:14.726Z,9.9
2022-12-20T01:22:16.963Z,9.7
2022-12-20T01:32:19.004Z,9.9
2022-12-20T01:42:20.693Z,9.8
2022-12-20T01:52:22.714Z,9.6
2022-12-20T02:02:24.769Z,9.7
2022-12-20T02:12:26.410Z,9.8
2022-12-20T02:22:28.316Z,9.9
2022-12-20T02:32:30.893Z,10.1
2022-12-20T02:42:33.112Z,10
2022-12-20T02:52:35.592Z,10
2022-12-20T03:12:40.063Z,9.8
2022-12-20T03:32:44.086Z,10
2022-12-20T03:42:45.893Z,10
2022-12-20T03:52:47.683Z,9.4
2022-12-20T04:02:50.480Z,9.5
2022-12-20T04:12:52.228Z,9.4
2022-12-20T04:22:53.971Z,9.4
2022-12-20T04:32:56.183Z,9.5
2022-12-20T04:42:58.388Z,9.5
2022-12-20T04:53:00.192Z,9.6
2022-12-20T05:13:08.942Z,9.8
2022-12-20T05:33:08.426Z,9.5
2022-12-20T05:53:12.465Z,9.4
2022-12-20T06:13:16.492Z,9.4
2022-12-20T06:23:18.852Z,9.5
2022-12-20T06:33:20.800Z,9.7
2022-12-20T06:43:22.662Z,9.5
2022-12-20T06:53:24.989Z,9.9
2022-12-20T07:03:27.508Z,9.9
2022-12-20T07:13:29.300Z,9.9
2022-12-20T07:23:31.287Z,10.1
2022-12-20T07:33:33.775Z,10.2
2022-12-20T07:43:36.148Z,10.3
2022-12-20T08:03:40.576Z,10.3
2022-12-20T08:13:46.147Z,10.7
2022-12-20T08:23:44.111Z,10.9
2022-12-20T08:33:45.833Z,10.6
2022-12-20T08:43:47.869Z,10.5
2022-12-20T08:53:50.241Z,10.9
2022-12-20T09:03:52.011Z,11
2022-12-20T09:13:54.447Z,11.4
2022-12-20T09:23:56.816Z,11.3
2022-12-20T09:33:58.508Z,11.5
2022-12-20T10:04:04.346Z,11.9
2022-12-20T10:14:05.833Z,12
2022-12-20T10:34:10.450Z,11.7
2022-12-20T10:54:14.426Z,11.5
2022-12-20T11:14:19.029Z,12
2022-12-20T11:34:23.945Z,11.9
2022-12-20T11:54:28.113Z,12.1
2022-12-20T12:14:32.193Z,11.9
2022-12-20T12:24:34.244Z,11.8
2022-12-20T12:34:36.264Z,11.7
2022-12-20T12:44:38.548Z,11.9
2022-12-20T12:54:40.856Z,12.2
2022-12-20T13:04:42.617Z,12.4
2022-12-20T13:14:44.491Z,12.4
2022-12-20T13:24:46.418Z,12.7
2022-12-20T13:34:48.428Z,12.7
2022-12-20T13:44:50.474Z,12.1
2022-12-20T13:54:52.735Z,11.4
2022-12-20T14:04:54.917Z,10.9
2022-12-20T14:14:56.856Z,10.7
2022-12-20T14:24:59.268Z,10.6
2022-12-20T14:35:01.627Z,10.4
2022-12-20T14:45:03.581Z,10.4
2022-12-20T14:55:08.154Z,10.3
2022-12-20T15:05:08.309Z,10.2
2022-12-20T15:15:28.079Z,10.1
2022-12-20T15:35:15.245Z,9.9
2022-12-20T15:45:17.515Z,9.8
2022-12-20T15:55:19.266Z,9.8
2022-12-20T16:05:21.017Z,9.7
2022-12-20T16:25:25.396Z,9.7
2022-12-20T16:35:27.980Z,9.6
2022-12-20T16:55:37.756Z,9.6
2022-12-20T17:05:34.189Z,9.5
2022-12-20T17:05:56.102Z,9.5
2022-12-20T17:15:43.594Z,9.4
2022-12-20T17:25:50.346Z,9.4
2022-12-20T17:35:47.959Z,9.5
2022-12-20T17:45:49.824Z,9.4
2022-12-20T18:05:54.442Z,9.4
2022-12-20T18:15:56.489Z,9.5
2022-12-20T18:25:58.798Z,9.4
2022-12-20T18:36:00.749Z,9.4
2022-12-20T18:46:02.683Z,9.3
2022-12-20T18:56:04.837Z,9.5
2022-12-20T19:06:07.430Z,9.6
2022-12-20T19:16:09.613Z,9.7
2022-12-20T19:36:14.046Z,9.7
2022-12-20T19:46:16.111Z,9.6
2022-12-20T19:56:18.273Z,9.5
2022-12-20T20:06:20.325Z,9.5
2022-12-20T20:16:23.238Z,9.8
2022-12-20T20:26:24.930Z,9.8
2022-12-20T20:36:26.931Z,9.9
2022-12-20T20:46:28.750Z,9.9
2022-12-20T20:56:30.486Z,9.9
2022-12-20T21:06:39.572Z,9.8
2022-12-20T21:16:35.253Z,9.6
2022-12-20T21:26:36.899Z,9.6
2022-12-20T21:36:38.838Z,9.7
2022-12-20T21:46:41.331Z,9.6
2022-12-20T21:56:43.944Z,9.7
2022-12-20T22:06:45.898Z,9.7
2022-12-20T22:16:48.094Z,9.9
2022-12-20T22:36:52.846Z,9.9
2022-12-20T22:46:54.827Z,9.9
2022-12-20T22:56:56.590Z,9.9
2022-12-20T23:06:58.756Z,9.9
2022-12-20T23:17:00.752Z,9.9
2022-12-20T23:27:03.343Z,9.9
2022-12-20T23:37:05.108Z,9.8
2022-12-20T23:47:07.171Z,9.8
2022-12-20T23:57:09.032Z,9.8
